createdAt,value
2023-04-09T00:00:17.672Z,59.37
2023-04-09T00:02:46.191Z,58.74
2023-04-09T00:05:14.265Z,59.00
2023-04-09T00:07:44.576Z,58.89
2023-04-09T00:10:13.015Z,58.98
2023-04-09T00:12:42.580Z,59.27
2023-04-09T00:15:15.031Z,59.16
2023-04-09T00:17:48.610Z,59.83
2023-04-09T00:20:17.368Z,59.18
2023-04-09T00:22:50.013Z,58.90
2023-04-09T00:25:18.988Z,59.57
2023-04-09T00:27:48.755Z,59.28
2023-04-09T00:30:20.437Z,60.22
2023-04-09T00:32:51.372Z,59.55
2023-04-09T00:35:20.878Z,59.24
2023-04-09T00:37:51.794Z,59.38
2023-04-09T00:40:20.060Z,59.29
2023-04-09T00:42:51.854Z,59.76
2023-04-09T00:45:21.098Z,60.35
2023-04-09T00:47:49.205Z,59.56
2023-04-09T00:50:17.893Z,60.17
2023-04-09T00:52:46.579Z,60.31
2023-04-09T00:55:16.840Z,60.62
2023-04-09T00:57:48.962Z,60.23
2023-04-09T01:00:18.856Z,59.91
2023-04-09T01:02:47.820Z,60.20
2023-04-09T01:05:16.581Z,60.65
2023-04-09T01:08:01.461Z,60.68
2023-04-09T01:10:32.109Z,60.70
2023-04-09T01:13:05.743Z,60.95
2023-04-09T01:15:37.218Z,60.62
2023-04-09T01:18:07.998Z,60.54
2023-04-09T01:20:37.415Z,60.99
2023-04-09T01:23:13.719Z,60.53
2023-04-09T01:25:46.836Z,61.04
2023-04-09T01:28:18.635Z,60.76
2023-04-09T01:30:49.614Z,61.19
2023-04-09T01:33:18.996Z,60.70
2023-04-09T01:35:48.203Z,60.82
2023-04-09T01:38:19.884Z,60.69
2023-04-09T01:40:48.261Z,60.81
2023-04-09T01:43:18.137Z,60.82
2023-04-09T01:45:46.625Z,60.73
2023-04-09T01:48:15.003Z,60.84
2023-04-09T01:50:43.162Z,60.75
2023-04-09T01:53:11.618Z,60.81
2023-04-09T01:55:39.857Z,60.50
2023-04-09T01:58:07.846Z,60.81
2023-04-09T02:00:39.876Z,60.96
2023-04-09T02:03:09.935Z,61.10
2023-04-09T02:05:40.400Z,60.92
2023-04-09T02:08:09.620Z,60.70
2023-04-09T02:10:37.841Z,61.28
2023-04-09T02:13:06.437Z,60.92
2023-04-09T02:15:34.730Z,61.20
2023-04-09T02:18:04.870Z,60.78
2023-04-09T02:20:33.018Z,60.53
2023-04-09T02:23:01.192Z,61.25
2023-04-09T02:25:29.199Z,60.53
2023-04-09T02:27:57.238Z,60.95
2023-04-09T02:30:25.603Z,61.01
2023-04-09T02:32:53.735Z,60.93
2023-04-09T02:35:25.553Z,61.48
2023-04-09T02:37:53.650Z,60.88
2023-04-09T02:40:22.392Z,60.73
2023-04-09T02:42:56.784Z,61.10
2023-04-09T02:45:25.195Z,60.83
2023-04-09T02:47:53.906Z,61.13
2023-04-09T02:50:26.936Z,61.05
2023-04-09T02:52:56.919Z,60.74
2023-04-09T02:55:25.372Z,61.17
2023-04-09T02:57:53.788Z,61.07
2023-04-09T03:00:22.245Z,60.77
2023-04-09T03:02:50.577Z,60.85
2023-04-09T03:05:19.024Z,60.81
2023-04-09T03:07:49.743Z,60.78
2023-04-09T03:10:18.217Z,61.01
2023-04-09T03:12:48.337Z,61.23
2023-04-09T03:15:16.924Z,60.31
2023-04-09T03:17:45.076Z,60.98
2023-04-09T03:20:13.381Z,60.49
2023-04-09T03:22:41.916Z,60.71
2023-04-09T03:25:12.318Z,60.58
2023-04-09T03:27:40.541Z,60.68
2023-04-09T03:30:09.864Z,60.74
2023-04-09T03:32:38.040Z,60.46
2023-04-09T03:35:07.117Z,60.64
2023-04-09T03:37:35.095Z,60.63
2023-04-09T03:40:04.154Z,60.72
2023-04-09T03:42:35.169Z,61.09
2023-04-09T03:45:26.312Z,60.72
2023-04-09T03:47:56.794Z,61.02
2023-04-09T03:50:26.174Z,60.83
2023-04-09T03:52:54.544Z,60.87
2023-04-09T03:55:22.929Z,60.75
2023-04-09T03:57:52.753Z,60.61
2023-04-09T04:00:21.002Z,60.56
2023-04-09T04:02:49.407Z,60.51
2023-04-09T04:05:20.518Z,60.67
2023-04-09T04:07:48.996Z,60.88
2023-04-09T04:10:17.273Z,60.69
2023-04-09T04:12:45.730Z,61.09
2023-04-09T04:15:15.218Z,61.15
2023-04-09T04:17:43.921Z,60.45
2023-04-09T04:22:39.384Z,60.56
2023-04-09T04:25:07.573Z,60.82
2023-04-09T04:27:35.396Z,60.78
2023-04-09T04:30:03.023Z,60.57
2023-04-09T04:32:32.198Z,61.13
2023-04-09T04:34:59.843Z,60.55
2023-04-09T04:37:27.702Z,60.86
2023-04-09T04:39:55.343Z,60.48
2023-04-09T04:42:23.337Z,61.04
2023-04-09T04:44:50.953Z,60.71
2023-04-09T04:47:19.430Z,60.45
2023-04-09T04:49:48.458Z,61.12
2023-04-09T04:52:17.788Z,61.19
2023-04-09T04:54:45.524Z,60.50
2023-04-09T04:57:13.327Z,60.84
2023-04-09T04:59:41.300Z,60.48
2023-04-09T05:02:09.206Z,60.21
2023-04-09T05:04:37.115Z,60.26
2023-04-09T05:07:06.351Z,60.39
2023-04-09T05:09:33.987Z,60.69
2023-04-09T05:12:01.751Z,60.62
2023-04-09T05:14:29.417Z,60.56
2023-04-09T05:16:57.232Z,59.89
2023-04-09T05:19:24.936Z,60.52
2023-04-09T05:21:52.706Z,60.19
2023-04-09T05:24:21.834Z,59.84
2023-04-09T05:26:49.487Z,60.19
2023-04-09T05:29:17.667Z,60.28
2023-04-09T05:31:45.611Z,60.30
2023-04-09T05:34:13.362Z,60.22
2023-04-09T05:36:41.219Z,60.12
2023-04-09T05:39:08.987Z,59.59
2023-04-09T05:41:38.705Z,59.68
2023-04-09T05:44:07.898Z,59.47
2023-04-09T05:46:35.632Z,59.47
2023-04-09T05:49:03.489Z,59.67
2023-04-09T05:51:31.268Z,59.49
2023-04-09T05:53:59.284Z,59.35
2023-04-09T05:56:28.000Z,59.28
2023-04-09T05:58:57.208Z,59.01
2023-04-09T06:01:25.026Z,59.13
2023-04-09T06:03:55.312Z,58.60
2023-04-09T06:06:24.926Z,58.85
2023-04-09T06:08:52.751Z,58.20
2023-04-09T06:11:21.302Z,58.02
2023-04-09T06:13:49.085Z,57.54
2023-04-09T06:16:18.146Z,57.44
2023-04-09T06:18:49.535Z,55.88
2023-04-09T06:21:17.418Z,54.96
2023-04-09T06:23:45.056Z,54.06
2023-04-09T06:26:12.805Z,53.41
2023-04-09T06:28:40.444Z,52.47
2023-04-09T06:31:09.316Z,51.40
2023-04-09T06:33:38.361Z,50.25
2023-04-09T06:36:06.778Z,49.64
2023-04-09T06:38:34.472Z,48.17
2023-04-09T06:41:02.300Z,47.43
2023-04-09T06:43:29.938Z,47.25
2023-04-09T06:45:57.923Z,46.74
2023-04-09T06:48:25.617Z,45.54
2023-04-09T06:50:54.853Z,45.00
2023-04-09T06:53:22.785Z,44.47
2023-04-09T06:55:51.273Z,43.29
2023-04-09T06:58:18.957Z,43.01
2023-04-09T07:00:46.784Z,41.58
2023-04-09T07:03:15.515Z,39.65
2023-04-09T07:05:43.474Z,38.31
2023-04-09T07:08:12.934Z,37.10
2023-04-09T07:10:40.813Z,35.55
2023-04-09T07:13:08.648Z,35.49
2023-04-09T07:15:36.719Z,35.15
2023-04-09T10:48:21.937Z,17.39
2023-04-09T10:50:51.835Z,18.67
2023-04-09T10:54:02.758Z,18.53
2023-04-09T10:57:06.250Z,19.25
2023-04-09T11:04:02.105Z,16.62
2023-04-09T11:06:30.075Z,15.37
2023-04-09T11:09:15.291Z,17.13
2023-04-09T11:11:55.808Z,18.52
2023-04-09T11:14:40.753Z,18.66
2023-04-09T11:17:17.619Z,19.27
2023-04-09T11:19:51.430Z,20.01
2023-04-09T11:22:19.365Z,20.66
2023-04-09T11:24:47.845Z,21.19
2023-04-09T11:27:20.019Z,21.30
2023-04-09T11:29:53.200Z,21.40
2023-04-09T11:32:26.155Z,21.44
2023-04-09T11:35:48.736Z,22.36
2023-04-09T11:38:17.205Z,21.70
2023-04-09T11:40:56.056Z,20.98
2023-04-09T11:44:05.016Z,19.92
2023-04-09T11:46:36.680Z,19.41
2023-04-09T11:49:05.994Z,19.71
2023-04-09T11:51:35.453Z,21.06
2023-04-09T11:54:03.714Z,22.32
2023-04-09T11:56:32.498Z,22.99
2023-04-09T11:59:00.310Z,23.61
2023-04-09T12:01:32.396Z,23.88
2023-04-09T12:04:00.746Z,24.16
2023-04-09T12:06:30.453Z,24.53
2023-04-09T12:08:58.815Z,24.53
2023-04-09T12:11:29.283Z,24.66
2023-04-09T12:14:01.481Z,25.07
2023-04-09T12:16:31.516Z,25.08
2023-04-09T12:19:02.372Z,25.56
2023-04-09T12:21:50.180Z,25.77
2023-04-09T12:24:18.357Z,25.82
2023-04-09T12:26:46.383Z,25.96
2023-04-09T12:29:15.159Z,26.08
2023-04-09T12:31:43.250Z,26.17
2023-04-09T12:34:11.070Z,26.14
2023-04-09T12:36:39.692Z,26.19
2023-04-09T12:39:09.970Z,26.08
2023-04-09T12:41:39.299Z,26.12
2023-04-09T12:44:07.695Z,25.75
2023-04-09T12:46:35.655Z,25.57
2023-04-09T12:49:04.369Z,25.75
2023-04-09T12:51:32.731Z,26.19
2023-04-09T12:54:00.894Z,26.11
2023-04-09T12:56:30.278Z,26.56
2023-04-09T12:58:58.171Z,26.01
2023-04-09T13:01:26.030Z,26.35
2023-04-09T13:03:54.380Z,25.96
2023-04-09T13:06:23.229Z,26.20
2023-04-09T13:08:51.570Z,25.69
2023-04-09T13:11:19.435Z,25.62
2023-04-09T13:13:48.700Z,25.97
2023-04-09T13:16:18.479Z,25.75
2023-04-09T13:18:46.294Z,25.74
2023-04-09T13:21:18.848Z,25.39
2023-04-09T13:23:46.731Z,25.17
2023-04-09T13:26:14.578Z,24.95
2023-04-09T13:28:42.430Z,25.04
2023-04-09T13:31:12.044Z,24.70
2023-04-09T13:33:40.738Z,24.66
2023-04-09T13:36:08.978Z,24.08
2023-04-09T13:38:36.952Z,24.03
2023-04-09T13:41:05.018Z,24.56
2023-04-09T13:43:32.835Z,25.05
2023-04-09T13:46:00.845Z,25.32
2023-04-09T13:48:30.119Z,25.72
2023-04-09T13:50:58.134Z,26.01
2023-04-09T13:53:26.149Z,25.88
2023-04-09T13:55:54.010Z,25.64
2023-04-09T13:58:23.575Z,25.64
2023-04-09T14:00:51.376Z,25.53
2023-04-09T14:03:19.525Z,25.56
2023-04-09T14:05:49.925Z,25.19
2023-04-09T14:08:17.811Z,25.65
2023-04-09T14:10:45.624Z,25.36
2023-04-09T14:13:13.848Z,25.19
2023-04-09T14:15:41.991Z,25.39
2023-04-09T14:18:10.216Z,25.24
2023-04-09T14:20:38.458Z,25.25
2023-04-09T14:23:07.969Z,25.15
2023-04-09T14:25:35.816Z,24.61
2023-04-09T14:28:03.935Z,25.17
2023-04-09T14:30:31.725Z,25.44
2023-04-09T14:33:00.049Z,26.04
2023-04-09T14:35:27.889Z,25.76
2023-04-09T14:37:56.794Z,25.98
2023-04-09T14:40:25.952Z,26.28
2023-04-09T14:42:53.835Z,26.51
2023-04-09T14:45:21.874Z,26.42
2023-04-09T14:47:49.913Z,26.92
2023-04-09T14:50:18.024Z,27.57
2023-04-09T14:55:15.565Z,27.92
2023-04-09T14:57:44.751Z,28.14
2023-04-09T15:00:13.585Z,28.40
2023-04-09T15:02:41.837Z,28.31
2023-04-09T15:05:10.997Z,28.41
2023-04-09T15:07:38.768Z,28.16
2023-04-09T15:10:07.713Z,27.63
2023-04-09T15:12:35.558Z,27.73
2023-04-09T15:15:08.616Z,27.58
2023-04-09T15:17:36.953Z,27.16
2023-04-09T15:20:05.553Z,26.99
2023-04-09T15:22:33.895Z,27.19
2023-04-09T15:25:02.061Z,27.14
2023-04-09T15:27:30.151Z,27.02
2023-04-09T15:29:58.308Z,27.00
2023-04-09T15:32:27.488Z,27.43
2023-04-09T15:34:55.674Z,27.34
2023-04-09T15:37:23.815Z,27.45
2023-04-09T15:39:53.412Z,27.52
2023-04-09T15:42:23.160Z,27.17
2023-04-09T15:44:51.614Z,27.20
2023-04-09T15:47:19.396Z,27.52
2023-04-09T15:49:48.742Z,27.35
2023-04-09T15:52:16.663Z,27.36
2023-04-09T15:54:44.833Z,27.46
2023-04-09T15:57:12.573Z,27.65
2023-04-09T15:59:40.691Z,27.56
2023-04-09T16:02:08.483Z,27.57
2023-04-09T16:04:36.506Z,27.69
2023-04-09T16:07:06.117Z,27.86
2023-04-09T16:09:34.046Z,27.73
2023-04-09T16:12:01.875Z,27.20
2023-04-09T16:14:30.362Z,27.54
2023-04-09T16:16:58.193Z,27.52
2023-04-09T16:22:09.977Z,27.78
2023-04-09T17:49:24.924Z,32.70
2023-04-09T17:52:19.209Z,32.57
2023-04-09T18:53:42.094Z,36.17
2023-04-09T19:01:07.259Z,36.38
2023-04-09T19:13:04.121Z,37.63
2023-04-09T19:15:49.236Z,38.36
2023-04-09T19:19:19.119Z,38.57
2023-04-09T19:51:25.717Z,38.60
2023-04-09T19:53:53.659Z,39.12
2023-04-09T19:59:40.001Z,38.53
2023-04-09T20:02:08.077Z,38.45
2023-04-09T20:04:38.209Z,38.22
2023-04-09T20:07:28.293Z,38.08
2023-04-09T20:14:00.358Z,37.81
2023-04-09T20:16:30.295Z,37.88
2023-04-09T20:20:03.207Z,38.19
2023-04-09T20:22:33.103Z,38.02
2023-04-09T20:25:21.446Z,37.80
2023-04-09T20:27:49.894Z,38.23
2023-04-09T20:30:33.050Z,38.67
2023-04-09T20:33:03.354Z,38.05
2023-04-09T20:36:04.673Z,38.32
2023-04-09T20:38:35.602Z,38.77
2023-04-09T20:41:06.604Z,38.67
2023-04-09T20:43:39.254Z,38.44
2023-04-09T20:46:07.323Z,38.16
2023-04-09T20:49:09.887Z,38.74
2023-04-09T20:51:37.925Z,38.69
2023-04-09T20:54:07.412Z,38.96
2023-04-09T20:56:35.512Z,38.28
2023-04-09T20:59:03.580Z,38.81
2023-04-09T21:02:20.180Z,38.85
2023-04-09T21:04:48.241Z,38.53
2023-04-09T21:07:16.202Z,38.41
2023-04-09T21:09:45.361Z,39.14
2023-04-09T21:12:13.300Z,38.58
2023-04-09T21:14:41.198Z,38.78
2023-04-09T21:17:18.290Z,39.03
2023-04-09T21:20:10.980Z,38.86
2023-04-09T21:23:01.356Z,39.22
2023-04-09T21:25:33.415Z,39.46
2023-04-09T21:28:43.341Z,39.27
2023-04-09T21:31:17.479Z,39.62
2023-04-09T21:33:45.479Z,39.34
2023-04-09T21:36:50.591Z,39.61
2023-04-09T21:39:42.564Z,39.34
2023-04-09T21:42:12.049Z,39.67
2023-04-09T21:44:40.129Z,39.69
2023-04-09T22:17:24.220Z,40.17
2023-04-09T22:20:16.818Z,39.92
2023-04-09T22:26:28.774Z,40.75
2023-04-09T22:29:40.742Z,40.66
2023-04-09T22:32:39.475Z,41.29
2023-04-09T22:41:52.211Z,42.12
2023-04-09T22:48:40.665Z,42.71
